createdAt,value
2023-02-07T00:07:15.555Z,5.53
2023-02-07T00:17:20.086Z,5.57
2023-02-07T00:27:23.274Z,6.03
2023-02-07T00:37:27.946Z,5.70
2023-02-07T00:47:31.136Z,5.93
2023-02-07T00:57:35.743Z,6.87
2023-02-07T01:07:38.903Z,6.97
2023-02-07T01:17:45.681Z,6.93
2023-02-07T01:27:48.964Z,6.70
2023-02-07T01:37:53.651Z,6.73
2023-02-07T01:48:01.739Z,7.17
2023-02-07T01:58:08.288Z,7.50
2023-02-07T02:08:12.362Z,7.37
2023-02-07T02:18:39.063Z,7.60
2023-02-07T02:29:04.223Z,7.90
2023-02-07T02:39:16.171Z,9.20
2023-02-07T02:49:20.508Z,8.77
2023-02-07T02:59:40.222Z,8.40
2023-02-07T03:09:54.983Z,9.20
2023-02-07T03:20:06.047Z,8.80
2023-02-07T03:30:15.148Z,9.70
2023-02-07T03:40:21.239Z,9.40
2023-02-07T03:50:24.581Z,9.00
2023-02-07T04:00:29.349Z,9.40
2023-02-07T04:10:32.526Z,9.87
2023-02-07T04:20:37.013Z,9.43
2023-02-07T04:30:40.250Z,9.80
2023-02-07T04:40:44.858Z,8.80
2023-02-07T04:50:48.032Z,9.73
2023-02-07T05:00:54.208Z,9.33
2023-02-07T05:10:57.912Z,9.20
2023-02-07T05:21:02.437Z,9.30
2023-02-07T05:31:06.026Z,10.00
2023-02-07T05:41:10.631Z,9.57
2023-02-07T05:51:13.867Z,10.00
2023-02-07T06:01:18.429Z,10.50
2023-02-07T06:11:21.699Z,10.63
2023-02-07T06:21:34.676Z,11.50
2023-02-07T06:31:44.207Z,11.47
2023-02-07T06:41:48.877Z,10.83
2023-02-07T06:51:52.170Z,10.80
2023-02-07T07:01:56.778Z,11.40
2023-02-07T07:12:00.055Z,11.87
2023-02-07T07:22:04.631Z,12.33
2023-02-07T07:32:07.862Z,11.33
2023-02-07T07:42:12.471Z,12.57
2023-02-07T07:52:48.079Z,12.30
2023-02-07T08:02:52.686Z,11.90
2023-02-07T08:12:55.857Z,12.10
2023-02-07T08:23:00.646Z,12.57
2023-02-07T08:33:04.018Z,12.30
2023-02-07T08:43:12.553Z,12.43
2023-02-07T08:53:16.002Z,12.90
2023-02-07T09:03:20.566Z,12.47
2023-02-07T09:13:23.954Z,12.57
2023-02-07T09:23:28.570Z,12.20
2023-02-07T09:33:31.918Z,12.77
2023-02-07T09:43:43.977Z,11.30
2023-02-07T09:53:54.402Z,11.57
2023-02-07T10:04:09.656Z,12.73
2023-02-07T10:14:33.371Z,11.57
2023-02-07T10:25:02.015Z,12.20
2023-02-07T10:35:15.750Z,11.57
2023-02-07T10:45:20.565Z,12.47
2023-02-07T10:55:38.124Z,11.43
2023-02-07T11:05:54.380Z,11.90
2023-02-07T11:16:01.689Z,11.63
2023-02-07T11:26:06.907Z,10.33
2023-02-07T11:36:23.351Z,11.10
2023-02-07T11:46:35.570Z,9.93
2023-02-07T11:56:42.132Z,9.90
2023-02-07T12:06:51.112Z,10.67
2023-02-07T12:16:57.386Z,10.20
2023-02-07T12:27:07.569Z,10.03
2023-02-07T12:37:20.284Z,9.90
2023-02-07T12:47:35.779Z,10.73
2023-02-07T12:57:44.579Z,9.97
2023-02-07T13:08:02.029Z,12.13
2023-02-07T13:18:11.336Z,12.27
2023-02-07T13:28:22.524Z,12.43
2023-02-07T13:38:51.015Z,12.17
2023-02-07T13:49:01.660Z,11.50
2023-02-07T13:59:22.313Z,10.10
2023-02-07T14:09:32.552Z,10.00
2023-02-07T14:19:53.141Z,9.57
2023-02-07T14:30:15.230Z,10.60
2023-02-07T14:40:22.553Z,10.70
2023-02-07T14:50:33.492Z,11.20
2023-02-07T15:00:45.217Z,10.50
2023-02-07T15:10:57.227Z,10.73
2023-02-07T15:21:01.244Z,11.13
2023-02-07T15:31:07.894Z,11.50
2023-02-07T15:41:11.260Z,11.97
2023-02-07T15:51:17.721Z,12.13
2023-02-07T16:01:26.138Z,13.87
2023-02-07T16:11:41.087Z,13.27
2023-02-07T16:21:46.424Z,13.03
2023-02-07T16:31:51.378Z,13.60
2023-02-07T16:41:57.740Z,13.00
2023-02-07T16:52:02.296Z,14.47
2023-02-07T17:02:14.871Z,14.00
2023-02-07T17:12:19.519Z,14.70
2023-02-07T17:22:22.828Z,16.30
2023-02-07T17:32:27.373Z,14.70
2023-02-07T17:42:30.530Z,15.93
2023-02-07T17:52:35.184Z,15.47
2023-02-07T18:02:38.392Z,15.60
2023-02-07T18:12:43.142Z,15.17
2023-02-07T18:22:46.367Z,15.53
2023-02-07T18:32:51.051Z,16.37
2023-02-07T18:42:55.142Z,15.57
2023-02-07T18:52:59.735Z,15.70
2023-02-07T19:03:02.910Z,16.23
2023-02-07T19:13:07.451Z,17.33
2023-02-07T19:23:10.668Z,16.50
2023-02-07T19:33:15.209Z,18.10
2023-02-07T19:43:18.368Z,17.83
2023-02-07T19:53:22.936Z,19.23
2023-02-07T20:03:26.595Z,17.53
2023-02-07T20:13:33.660Z,18.23
2023-02-07T20:23:38.613Z,17.27
2023-02-07T20:33:44.353Z,18.53
2023-02-07T20:43:47.624Z,17.37
2023-02-07T20:53:52.207Z,17.50
2023-02-07T21:03:57.410Z,19.47
2023-02-07T21:14:02.355Z,18.70
2023-02-07T21:24:05.979Z,18.17
2023-02-07T21:34:10.755Z,17.70
2023-02-07T21:44:16.600Z,16.50
2023-02-07T21:54:21.488Z,17.63
2023-02-07T22:04:24.749Z,18.37
2023-02-07T22:14:30.002Z,17.77
2023-02-07T22:24:33.271Z,18.80
2023-02-07T22:34:37.813Z,18.97
2023-02-07T22:44:40.966Z,20.07
2023-02-07T22:54:45.616Z,19.87
2023-02-07T23:04:49.199Z,20.00
2023-02-07T23:14:53.882Z,21.10
2023-02-07T23:24:57.194Z,20.20
2023-02-07T23:35:01.721Z,21.67
2023-02-07T23:45:05.202Z,23.07
2023-02-07T23:55:09.890Z,22.30
